sensor_id;sensor_type;location;lat;lon;timestamp;pressure;altitude;pressure_sealevel;temperature;humidity
72855;BME280;60991;51.278;22.550;2023-05-02T00:00:06;99282.81;;;12.89;40.67
72855;BME280;60991;51.278;22.550;2023-05-02T00:01:36;99284.69;;;12.89;40.35
72855;BME280;60991;51.278;22.550;2023-05-02T00:03:07;99278.28;;;12.90;40.34
72855;BME280;60991;51.278;22.550;2023-05-02T00:04:37;99285.22;;;12.91;40.36
72855;BME280;60991;51.278;22.550;2023-05-02T00:06:07;99286.28;;;12.90;40.51
72855;BME280;60991;51.278;22.550;2023-05-02T00:07:38;99281.75;;;12.90;40.20
72855;BME280;60991;51.278;22.550;2023-05-02T00:09:08;99287.09;;;12.90;40.57
72855;BME280;60991;51.278;22.550;2023-05-02T00:10:38;99279.91;;;12.91;40.21
72855;BME280;60991;51.278;22.550;2023-05-02T00:12:08;99277.25;;;12.91;40.43
72855;BME280;60991;51.278;22.550;2023-05-02T00:13:39;99278.59;;;12.93;40.49
72855;BME280;60991;51.278;22.550;2023-05-02T00:15:09;99278.03;;;12.91;40.55
72855;BME280;60991;51.278;22.550;2023-05-02T00:16:39;99281.47;;;12.87;40.39
72855;BME280;60991;51.278;22.550;2023-05-02T00:18:09;99278.78;;;12.87;40.55
72855;BME280;60991;51.278;22.550;2023-05-02T00:19:40;99272.91;;;12.84;40.81
72855;BME280;60991;51.278;22.550;2023-05-02T00:21:10;99275.03;;;12.82;40.54
72855;BME280;60991;51.278;22.550;2023-05-02T00:22:40;99272.38;;;12.82;40.68
72855;BME280;60991;51.278;22.550;2023-05-02T00:24:10;99275.03;;;12.82;40.49
72855;BME280;60991;51.278;22.550;2023-05-02T00:25:44;99276.38;;;12.80;40.43
72855;BME280;60991;51.278;22.550;2023-05-02T00:27:14;99281.13;;;12.78;40.41
72855;BME280;60991;51.278;22.550;2023-05-02T00:28:44;99272.63;;;12.81;40.60
72855;BME280;60991;51.278;22.550;2023-05-02T00:30:14;99267.56;;;12.79;40.54
72855;BME280;60991;51.278;22.550;2023-05-02T00:31:45;99274.19;;;12.77;40.29
72855;BME280;60991;51.278;22.550;2023-05-02T00:33:15;99268.88;;;12.77;40.26
72855;BME280;60991;51.278;22.550;2023-05-02T00:34:45;99274.75;;;12.79;40.27
72855;BME280;60991;51.278;22.550;2023-05-02T00:36:17;99271.81;;;12.80;40.32
72855;BME280;60991;51.278;22.550;2023-05-02T00:37:47;99276.88;;;12.82;40.32
72855;BME280;60991;51.278;22.550;2023-05-02T00:39:17;99274.44;;;12.75;40.66
72855;BME280;60991;51.278;22.550;2023-05-02T00:40:49;99270.09;;;12.64;40.70
72855;BME280;60991;51.278;22.550;2023-05-02T00:42:19;99270.50;;;12.51;41.01
72855;BME280;60991;51.278;22.550;2023-05-02T00:43:49;99267.66;;;12.58;40.50
72855;BME280;60991;51.278;22.550;2023-05-02T00:45:19;99270.88;;;12.65;40.88
72855;BME280;60991;51.278;22.550;2023-05-02T00:46:50;99271.63;;;12.55;40.88
72855;BME280;60991;51.278;22.550;2023-05-02T00:48:20;99272.28;;;12.40;40.93
72855;BME280;60991;51.278;22.550;2023-05-02T00:49:50;99264.78;;;12.37;40.92
72855;BME280;60991;51.278;22.550;2023-05-02T00:51:20;99265.84;;;12.36;41.15
72855;BME280;60991;51.278;22.550;2023-05-02T00:52:54;99269.81;;;12.34;41.35
72855;BME280;60991;51.278;22.550;2023-05-02T00:54:24;99262.38;;;12.36;41.13
72855;BME280;60991;51.278;22.550;2023-05-02T00:55:57;99265.91;;;12.41;41.03
72855;BME280;60991;51.278;22.550;2023-05-02T00:57:27;99264.31;;;12.45;40.67
72855;BME280;60991;51.278;22.550;2023-05-02T00:58:57;99263.25;;;12.41;41.05
72855;BME280;60991;51.278;22.550;2023-05-02T01:00:38;99259.88;;;12.24;41.33
72855;BME280;60991;51.278;22.550;2023-05-02T01:02:24;99258.28;;;12.23;41.15
72855;BME280;60991;51.278;22.550;2023-05-02T01:05:41;99262.56;;;12.29;41.34
72855;BME280;60991;51.278;22.550;2023-05-02T01:09:16;99262.81;;;12.28;40.97
72855;BME280;60991;51.278;22.550;2023-05-02T01:11:18;99263.53;;;12.18;41.55
72855;BME280;60991;51.278;22.550;2023-05-02T01:13:12;99257.31;;;12.34;41.30
72855;BME280;60991;51.278;22.550;2023-05-02T01:14:51;99253.78;;;12.29;41.60
72855;BME280;60991;51.278;22.550;2023-05-02T01:16:23;99254.56;;;12.24;41.36
72855;BME280;60991;51.278;22.550;2023-05-02T01:17:54;99253.69;;;12.19;41.77
72855;BME280;60991;51.278;22.550;2023-05-02T01:19:30;99249.75;;;12.26;41.74
72855;BME280;60991;51.278;22.550;2023-05-02T01:21:05;99250.69;;;12.37;41.43
72855;BME280;60991;51.278;22.550;2023-05-02T01:22:37;99253.13;;;12.43;40.93
72855;BME280;60991;51.278;22.550;2023-05-02T01:24:31;99242.63;;;12.32;41.06
72855;BME280;60991;51.278;22.550;2023-05-02T01:26:31;99248.16;;;12.25;41.72
72855;BME280;60991;51.278;22.550;2023-05-02T01:29:55;99238.44;;;12.36;40.97
72855;BME280;60991;51.278;22.550;2023-05-02T01:31:33;99244.31;;;12.38;41.10
72855;BME280;60991;51.278;22.550;2023-05-02T01:33:06;99244.31;;;12.38;41.19
72855;BME280;60991;51.278;22.550;2023-05-02T01:34:39;99239.59;;;12.18;41.84
72855;BME280;60991;51.278;22.550;2023-05-02T01:36:12;99237.38;;;12.10;41.99
72855;BME280;60991;51.278;22.550;2023-05-02T01:37:44;99240.88;;;12.16;41.77
72855;BME280;60991;51.278;22.550;2023-05-02T01:39:21;99231.69;;;12.01;41.92
72855;BME280;60991;51.278;22.550;2023-05-02T01:40:53;99225.09;;;12.04;41.95
72855;BME280;60991;51.278;22.550;2023-05-02T01:42:26;99226.63;;;12.00;42.04
72855;BME280;60991;51.278;22.550;2023-05-02T01:43:58;99227.22;;;12.07;42.00
72855;BME280;60991;51.278;22.550;2023-05-02T01:45:33;99226.25;;;11.91;42.26
72855;BME280;60991;51.278;22.550;2023-05-02T01:47:06;99228.13;;;11.91;42.55
72855;BME280;60991;51.278;22.550;2023-05-02T01:48:40;99222.84;;;11.96;42.26
72855;BME280;60991;51.278;22.550;2023-05-02T01:50:17;99228.31;;;11.84;42.19
72855;BME280;60991;51.278;22.550;2023-05-02T01:51:49;99220.34;;;11.84;42.41
72855;BME280;60991;51.278;22.550;2023-05-02T01:53:21;99227.84;;;11.87;42.36
72855;BME280;60991;51.278;22.550;2023-05-02T01:54:54;99220.09;;;11.86;42.16
72855;BME280;60991;51.278;22.550;2023-05-02T01:56:28;99218.78;;;11.88;42.43
72855;BME280;60991;51.278;22.550;2023-05-02T01:58:00;99219.88;;;11.70;42.33
72855;BME280;60991;51.278;22.550;2023-05-02T01:59:33;99214.84;;;11.69;42.84
72855;BME280;60991;51.278;22.550;2023-05-02T02:01:05;99218.53;;;11.68;42.72
72855;BME280;60991;51.278;22.550;2023-05-02T02:02:36;99213.16;;;11.63;42.84
72855;BME280;60991;51.278;22.550;2023-05-02T02:04:08;99213.66;;;11.60;43.12
72855;BME280;60991;51.278;22.550;2023-05-02T02:05:40;99206.22;;;11.62;42.76
72855;BME280;60991;51.278;22.550;2023-05-02T02:07:12;99206.41;;;11.55;43.12
72855;BME280;60991;51.278;22.550;2023-05-02T02:08:43;99207.84;;;11.63;43.26
72855;BME280;60991;51.278;22.550;2023-05-02T02:10:13;99204.22;;;11.74;42.98
72855;BME280;60991;51.278;22.550;2023-05-02T02:11:56;99205.28;;;11.73;42.80
72855;BME280;60991;51.278;22.550;2023-05-02T02:13:36;99205.94;;;11.80;42.91
72855;BME280;60991;51.278;22.550;2023-05-02T02:16:44;99205.78;;;11.70;42.96
72855;BME280;60991;51.278;22.550;2023-05-02T02:18:20;99209.47;;;11.86;42.69
72855;BME280;60991;51.278;22.550;2023-05-02T02:19:52;99199.63;;;11.86;42.85
72855;BME280;60991;51.278;22.550;2023-05-02T02:21:25;99192.47;;;11.70;42.98
72855;BME280;60991;51.278;22.550;2023-05-02T02:22:59;99196.16;;;11.64;43.39
72855;BME280;60991;51.278;22.550;2023-05-02T02:24:34;99195.66;;;11.67;43.41
72855;BME280;60991;51.278;22.550;2023-05-02T02:26:06;99194.53;;;11.63;43.43
72855;BME280;60991;51.278;22.550;2023-05-02T02:27:37;99198.09;;;11.73;43.43
72855;BME280;60991;51.278;22.550;2023-05-02T02:29:07;99194.75;;;11.78;43.35
72855;BME280;60991;51.278;22.550;2023-05-02T02:30:37;99197.50;;;11.88;43.19
72855;BME280;60991;51.278;22.550;2023-05-02T02:32:08;99199.09;;;11.89;43.27
72855;BME280;60991;51.278;22.550;2023-05-02T02:33:39;99198.81;;;11.86;43.28
72855;BME280;60991;51.278;22.550;2023-05-02T02:35:09;99202.81;;;11.88;43.00
72855;BME280;60991;51.278;22.550;2023-05-02T02:36:56;99197.22;;;11.85;43.29
72855;BME280;60991;51.278;22.550;2023-05-02T02:40:46;99194.09;;;11.93;42.96
72855;BME280;60991;51.278;22.550;2023-05-02T02:46:29;99193.53;;;11.91;43.22
72855;BME280;60991;51.278;22.550;2023-05-02T02:48:20;99197.50;;;11.88;43.34
72855;BME280;60991;51.278;22.550;2023-05-02T02:50:12;99190.53;;;11.82;43.62
72855;BME280;60991;51.278;22.550;2023-05-02T02:52:13;99199.34;;;11.88;43.39
72855;BME280;60991;51.278;22.550;2023-05-02T02:57:25;99188.59;;;11.56;44.09
72855;BME280;60991;51.278;22.550;2023-05-02T02:59:25;99185.88;;;11.51;44.36
72855;BME280;60991;51.278;22.550;2023-05-02T03:01:02;99189.34;;;11.51;44.52
72855;BME280;60991;51.278;22.550;2023-05-02T03:02:34;99191.72;;;11.48;44.80
72855;BME280;60991;51.278;22.550;2023-05-02T03:04:06;99188.81;;;11.27;45.36
72855;BME280;60991;51.278;22.550;2023-05-02T03:05:37;99188.31;;;11.30;45.20
72855;BME280;60991;51.278;22.550;2023-05-02T03:07:08;99183.81;;;11.31;45.16
72855;BME280;60991;51.278;22.550;2023-05-02T03:08:42;99183.81;;;11.31;45.15
72855;BME280;60991;51.278;22.550;2023-05-02T03:10:12;99193.19;;;11.38;44.75
72855;BME280;60991;51.278;22.550;2023-05-02T03:11:43;99194.06;;;11.44;45.03
72855;BME280;60991;51.278;22.550;2023-05-02T03:13:13;99187.00;;;11.55;44.77
72855;BME280;60991;51.278;22.550;2023-05-02T03:14:44;99192.88;;;11.57;44.77
72855;BME280;60991;51.278;22.550;2023-05-02T03:17:59;99205.75;;;11.43;45.32
72855;BME280;60991;51.278;22.550;2023-05-02T03:19:30;99194.94;;;11.50;44.89
72855;BME280;60991;51.278;22.550;2023-05-02T03:21:00;99200.34;;;11.60;45.04
72855;BME280;60991;51.278;22.550;2023-05-02T03:22:30;99200.91;;;11.62;44.66
72855;BME280;60991;51.278;22.550;2023-05-02T03:24:02;99196.41;;;11.62;45.10
72855;BME280;60991;51.278;22.550;2023-05-02T03:25:32;99201.47;;;11.64;44.75
72855;BME280;60991;51.278;22.550;2023-05-02T03:27:02;99195.34;;;11.63;44.63
72855;BME280;60991;51.278;22.550;2023-05-02T03:28:33;99197.44;;;11.61;45.30
72855;BME280;60991;51.278;22.550;2023-05-02T03:30:03;99188.59;;;11.56;45.03
72855;BME280;60991;51.278;22.550;2023-05-02T03:31:34;99192.56;;;11.53;45.08
72855;BME280;60991;51.278;22.550;2023-05-02T03:33:04;99189.53;;;11.44;45.53
72855;BME280;60991;51.278;22.550;2023-05-02T03:34:34;99197.88;;;11.53;45.21
72855;BME280;60991;51.278;22.550;2023-05-02T03:36:04;99195.28;;;11.58;45.48
72855;BME280;60991;51.278;22.550;2023-05-02T03:37:35;99195.28;;;11.58;45.22
72855;BME280;60991;51.278;22.550;2023-05-02T03:39:05;99190.28;;;11.62;45.28
72855;BME280;60991;51.278;22.550;2023-05-02T03:40:35;99191.31;;;11.61;45.29
72855;BME280;60991;51.278;22.550;2023-05-02T03:42:05;99201.41;;;11.59;45.37
72855;BME280;60991;51.278;22.550;2023-05-02T03:43:36;99198.69;;;11.54;45.85
72855;BME280;60991;51.278;22.550;2023-05-02T03:45:07;99197.63;;;11.55;45.49
72855;BME280;60991;51.278;22.550;2023-05-02T03:46:37;99198.69;;;11.54;45.81
72855;BME280;60991;51.278;22.550;2023-05-02T03:48:07;99190.91;;;11.47;45.96
72855;BME280;60991;51.278;22.550;2023-05-02T03:49:38;99197.28;;;11.46;46.25
72855;BME280;60991;51.278;22.550;2023-05-02T03:51:09;99205.00;;;11.48;46.42
72855;BME280;60991;51.278;22.550;2023-05-02T03:52:39;99201.59;;;11.52;46.03
72855;BME280;60991;51.278;22.550;2023-05-02T03:54:09;99207.41;;;11.49;46.43
72855;BME280;60991;51.278;22.550;2023-05-02T03:55:40;99212.47;;;11.51;46.20
72855;BME280;60991;51.278;22.550;2023-05-02T03:57:10;99218.47;;;11.41;46.83
72855;BME280;60991;51.278;22.550;2023-05-02T03:58:41;99218.41;;;11.36;46.96
72855;BME280;60991;51.278;22.550;2023-05-02T04:00:11;99213.19;;;11.24;47.39
72855;BME280;60991;51.278;22.550;2023-05-02T04:01:41;99212.19;;;11.08;47.58
72855;BME280;60991;51.278;22.550;2023-05-02T04:03:11;99215.66;;;11.09;47.85
72855;BME280;60991;51.278;22.550;2023-05-02T04:04:42;99210.44;;;10.97;48.02
72855;BME280;60991;51.278;22.550;2023-05-02T04:06:12;99214.88;;;10.92;48.21
72855;BME280;60991;51.278;22.550;2023-05-02T04:07:42;99213.84;;;10.93;48.56
72855;BME280;60991;51.278;22.550;2023-05-02T04:09:12;99221.72;;;10.88;48.67
72855;BME280;60991;51.278;22.550;2023-05-02T04:10:42;99214.44;;;11.00;48.26
72855;BME280;60991;51.278;22.550;2023-05-02T04:12:14;99216.47;;;11.09;48.30
72855;BME280;60991;51.278;22.550;2023-05-02T04:13:44;99223.75;;;11.19;47.92
72855;BME280;60991;51.278;22.550;2023-05-02T04:15:14;99218.44;;;11.19;47.38
72855;BME280;60991;51.278;22.550;2023-05-02T04:16:47;99220.44;;;11.29;47.62
72855;BME280;60991;51.278;22.550;2023-05-02T04:18:17;99221.84;;;11.36;47.28
72855;BME280;60991;51.278;22.550;2023-05-02T04:19:48;99218.72;;;11.39;47.15
72855;BME280;60991;51.278;22.550;2023-05-02T04:21:18;99213.47;;;11.44;47.01
72855;BME280;60991;51.278;22.550;2023-05-02T04:22:48;99220.63;;;11.44;47.11
72855;BME280;60991;51.278;22.550;2023-05-02T04:24:18;99215.13;;;11.51;47.08
72855;BME280;60991;51.278;22.550;2023-05-02T04:25:52;99220.19;;;11.52;47.20
72855;BME280;60991;51.278;22.550;2023-05-02T04:27:22;99225.75;;;11.51;47.31
72855;BME280;60991;51.278;22.550;2023-05-02T04:28:53;99225.22;;;11.49;47.42
72855;BME280;60991;51.278;22.550;2023-05-02T04:30:23;99216.72;;;11.52;47.38
72855;BME280;60991;51.278;22.550;2023-05-02T04:31:53;99222.34;;;11.55;47.22
72855;BME280;60991;51.278;22.550;2023-05-02T04:33:23;99214.44;;;11.60;47.31
72855;BME280;60991;51.278;22.550;2023-05-02T04:34:54;99220.34;;;11.62;47.35
72855;BME280;60991;51.278;22.550;2023-05-02T04:36:24;99223.78;;;11.63;47.14
72855;BME280;60991;51.278;22.550;2023-05-02T04:37:54;99230.25;;;11.72;47.31
72855;BME280;60991;51.278;22.550;2023-05-02T04:39:24;99230.56;;;11.75;47.18
72855;BME280;60991;51.278;22.550;2023-05-02T04:40:54;99222.00;;;11.68;47.34
72855;BME280;60991;51.278;22.550;2023-05-02T04:42:25;99229.34;;;11.61;47.56
72855;BME280;60991;51.278;22.550;2023-05-02T04:43:55;99220.94;;;11.69;47.17
72855;BME280;60991;51.278;22.550;2023-05-02T04:45:25;99224.78;;;11.78;46.89
72855;BME280;60991;51.278;22.550;2023-05-02T04:46:55;99222.59;;;11.75;47.41
72855;BME280;60991;51.278;22.550;2023-05-02T04:48:25;99230.91;;;11.79;47.16
72855;BME280;60991;51.278;22.550;2023-05-02T04:49:56;99227.03;;;11.87;47.18
72855;BME280;60991;51.278;22.550;2023-05-02T04:51:26;99240.81;;;11.84;47.40
72855;BME280;60991;51.278;22.550;2023-05-02T04:52:56;99233.41;;;11.86;47.26
72855;BME280;60991;51.278;22.550;2023-05-02T04:54:26;99230.50;;;11.87;47.04
72855;BME280;60991;51.278;22.550;2023-05-02T04:55:57;99234.69;;;11.83;47.19
72855;BME280;60991;51.278;22.550;2023-05-02T04:57:27;99241.00;;;11.77;47.45
72855;BME280;60991;51.278;22.550;2023-05-02T04:58:57;99240.66;;;11.73;47.74
72855;BME280;60991;51.278;22.550;2023-05-02T05:00:27;99241.16;;;11.70;47.39
72855;BME280;60991;51.278;22.550;2023-05-02T05:01:58;99246.22;;;11.72;47.85
72855;BME280;60991;51.278;22.550;2023-05-02T05:03:28;99241.88;;;11.83;47.63
72855;BME280;60991;51.278;22.550;2023-05-02T05:05:00;99237.41;;;11.88;47.54
72855;BME280;60991;51.278;22.550;2023-05-02T05:06:30;99246.44;;;11.87;47.59
72855;BME280;60991;51.278;22.550;2023-05-02T05:08:00;99239.56;;;11.91;47.63
72855;BME280;60991;51.278;22.550;2023-05-02T05:09:30;99242.22;;;11.91;47.57
72855;BME280;60991;51.278;22.550;2023-05-02T05:11:01;99244.84;;;11.86;47.71
72855;BME280;60991;51.278;22.550;2023-05-02T05:12:31;99242.53;;;11.95;47.81
72855;BME280;60991;51.278;22.550;2023-05-02T05:14:01;99252.13;;;11.96;47.70
72855;BME280;60991;51.278;22.550;2023-05-02T05:15:31;99240.06;;;11.88;47.90
72855;BME280;60991;51.278;22.550;2023-05-02T05:17:02;99240.75;;;11.78;48.07
72855;BME280;60991;51.278;22.550;2023-05-02T05:18:32;99246.63;;;11.81;48.20
72855;BME280;60991;51.278;22.550;2023-05-02T05:20:02;99241.63;;;11.84;48.27
72855;BME280;60991;51.278;22.550;2023-05-02T05:21:33;99241.88;;;11.83;48.33
72855;BME280;60991;51.278;22.550;2023-05-02T05:23:03;99246.19;;;11.89;48.13
72855;BME280;60991;51.278;22.550;2023-05-02T05:24:33;99233.19;;;11.92;48.46
72855;BME280;60991;51.278;22.550;2023-05-02T05:26:16;99242.78;;;11.93;48.52
72855;BME280;60991;51.278;22.550;2023-05-02T05:27:46;99240.75;;;12.00;48.01
72855;BME280;60991;51.278;22.550;2023-05-02T05:29:16;99250.31;;;12.01;47.81
72855;BME280;60991;51.278;22.550;2023-05-02T05:30:46;99244.09;;;12.18;47.56
72855;BME280;60991;51.278;22.550;2023-05-02T05:32:16;99250.38;;;12.33;47.15
72855;BME280;60991;51.278;22.550;2023-05-02T05:33:47;99240.66;;;12.49;47.07
72855;BME280;60991;51.278;22.550;2023-05-02T05:35:17;99246.41;;;12.36;47.43
72855;BME280;60991;51.278;22.550;2023-05-02T05:36:47;99245.09;;;12.38;47.19
72855;BME280;60991;51.278;22.550;2023-05-02T05:38:17;99232.84;;;12.37;46.98
72855;BME280;60991;51.278;22.550;2023-05-02T05:39:47;99246.59;;;12.29;47.29
72855;BME280;60991;51.278;22.550;2023-05-02T05:41:18;99248.72;;;12.27;47.07
72855;BME280;60991;51.278;22.550;2023-05-02T05:42:48;99241.53;;;12.28;47.34
72855;BME280;60991;51.278;22.550;2023-05-02T05:44:18;99247.72;;;12.33;47.37
72855;BME280;60991;51.278;22.550;2023-05-02T05:45:52;99250.94;;;12.35;46.84
72855;BME280;60991;51.278;22.550;2023-05-02T05:47:22;99257.50;;;12.28;47.17
72855;BME280;60991;51.278;22.550;2023-05-02T05:48:52;99255.69;;;12.33;47.46
72855;BME280;60991;51.278;22.550;2023-05-02T05:50:22;99253.84;;;12.34;47.22
72855;BME280;60991;51.278;22.550;2023-05-02T05:51:52;99258.97;;;12.40;47.28
72855;BME280;60991;51.278;22.550;2023-05-02T05:53:23;99256.59;;;12.44;47.25
72855;BME280;60991;51.278;22.550;2023-05-02T05:54:53;99249.47;;;12.49;47.39
72855;BME280;60991;51.278;22.550;2023-05-02T05:56:23;99254.53;;;12.51;47.12
72855;BME280;60991;51.278;22.550;2023-05-02T05:57:53;99250.31;;;12.55;47.51
72855;BME280;60991;51.278;22.550;2023-05-02T05:59:24;99248.75;;;12.59;47.61
72855;BME280;60991;51.278;22.550;2023-05-02T06:00:54;99250.31;;;12.55;47.79
72855;BME280;60991;51.278;22.550;2023-05-02T06:02:24;99254.88;;;12.60;47.73
72855;BME280;60991;51.278;22.550;2023-05-02T06:03:54;99251.16;;;12.61;47.57
72855;BME280;60991;51.278;22.550;2023-05-02T06:05:24;99255.75;;;12.70;47.93
72855;BME280;60991;51.278;22.550;2023-05-02T06:06:55;99266.16;;;12.72;47.58
72855;BME280;60991;51.278;22.550;2023-05-02T06:08:25;99259.56;;;12.79;47.50
72855;BME280;60991;51.278;22.550;2023-05-02T06:09:55;99259.28;;;12.81;47.51
72855;BME280;60991;51.278;22.550;2023-05-02T06:11:25;99261.47;;;12.84;47.51
72855;BME280;60991;51.278;22.550;2023-05-02T06:12:56;99254.81;;;12.87;47.42
72855;BME280;60991;51.278;22.550;2023-05-02T06:14:26;99255.63;;;12.87;47.71
72855;BME280;60991;51.278;22.550;2023-05-02T06:15:59;99264.75;;;12.96;47.81
72855;BME280;60991;51.278;22.550;2023-05-02T06:17:30;99258.66;;;13.01;46.88
72855;BME280;60991;51.278;22.550;2023-05-02T06:19:00;99260.81;;;13.04;46.87
72855;BME280;60991;51.278;22.550;2023-05-02T06:20:30;99271.25;;;13.10;46.78
72855;BME280;60991;51.278;22.550;2023-05-02T06:22:00;99274.00;;;13.15;47.24
72855;BME280;60991;51.278;22.550;2023-05-02T06:23:31;99269.22;;;13.23;47.03
72855;BME280;60991;51.278;22.550;2023-05-02T06:25:01;99263.13;;;13.27;46.71
72855;BME280;60991;51.278;22.550;2023-05-02T06:26:31;99268.47;;;13.27;46.71
72855;BME280;60991;51.278;22.550;2023-05-02T06:28:01;99266.63;;;13.33;46.58
72855;BME280;60991;51.278;22.550;2023-05-02T06:29:32;99270.91;;;13.34;46.92
72855;BME280;60991;51.278;22.550;2023-05-02T06:31:03;99265.06;;;13.42;47.34
72855;BME280;60991;51.278;22.550;2023-05-02T06:32:34;99267.22;;;13.45;46.29
72855;BME280;60991;51.278;22.550;2023-05-02T06:34:04;99275.00;;;13.51;46.75
72855;BME280;60991;51.278;22.550;2023-05-02T06:35:34;99274.75;;;13.58;46.53
72855;BME280;60991;51.278;22.550;2023-05-02T06:37:04;99274.50;;;13.60;46.02
72855;BME280;60991;51.278;22.550;2023-05-02T06:38:34;99272.13;;;13.73;45.82
72855;BME280;60991;51.278;22.550;2023-05-02T06:40:05;99268.69;;;13.73;46.08
72855;BME280;60991;51.278;22.550;2023-05-02T06:41:36;99267.66;;;13.84;45.89
72855;BME280;60991;51.278;22.550;2023-05-02T06:43:06;99279.44;;;13.88;46.09
72855;BME280;60991;51.278;22.550;2023-05-02T06:44:36;99287.97;;;13.95;46.36
72855;BME280;60991;51.278;22.550;2023-05-02T06:46:07;99280.53;;;14.02;45.53
72855;BME280;60991;51.278;22.550;2023-05-02T06:47:37;99280.28;;;14.14;45.11
72855;BME280;60991;51.278;22.550;2023-05-02T06:49:08;99291.25;;;14.17;45.49
72855;BME280;60991;51.278;22.550;2023-05-02T06:50:38;99285.66;;;14.29;45.06
72855;BME280;60991;51.278;22.550;2023-05-02T06:52:08;99288.38;;;14.39;45.49
72855;BME280;60991;51.278;22.550;2023-05-02T06:53:38;99287.09;;;14.52;44.89
72855;BME280;60991;51.278;22.550;2023-05-02T06:55:09;99279.88;;;14.52;44.25
72855;BME280;60991;51.278;22.550;2023-05-02T06:56:39;99290.84;;;14.56;44.71
72855;BME280;60991;51.278;22.550;2023-05-02T06:58:10;99291.91;;;14.65;44.44
72855;BME280;60991;51.278;22.550;2023-05-02T06:59:40;99291.91;;;14.70;44.22
72855;BME280;60991;51.278;22.550;2023-05-02T07:01:10;99297.00;;;14.82;44.33
72855;BME280;60991;51.278;22.550;2023-05-02T07:02:40;99291.63;;;14.87;43.85
72855;BME280;60991;51.278;22.550;2023-05-02T07:04:10;99285.50;;;14.97;43.57
72855;BME280;60991;51.278;22.550;2023-05-02T07:05:41;99280.69;;;15.09;43.68
72855;BME280;60991;51.278;22.550;2023-05-02T07:07:11;99280.16;;;15.17;43.31
72855;BME280;60991;51.278;22.550;2023-05-02T07:08:41;99290.31;;;15.20;43.09
72855;BME280;60991;51.278;22.550;2023-05-02T07:10:11;99289.22;;;15.26;43.35
72855;BME280;60991;51.278;22.550;2023-05-02T07:11:42;99283.31;;;15.29;43.25
72855;BME280;60991;51.278;22.550;2023-05-02T07:13:12;99283.31;;;15.34;42.54
72855;BME280;60991;51.278;22.550;2023-05-02T07:14:43;99282.50;;;15.39;42.62
72855;BME280;60991;51.278;22.550;2023-05-02T07:16:13;99278.75;;;15.45;42.75
72855;BME280;60991;51.278;22.550;2023-05-02T07:17:43;99280.59;;;15.54;42.76
72855;BME280;60991;51.278;22.550;2023-05-02T07:19:13;99284.63;;;15.57;43.18
72855;BME280;60991;51.278;22.550;2023-05-02T07:20:44;99279.78;;;15.64;43.01
72855;BME280;60991;51.278;22.550;2023-05-02T07:22:14;99287.53;;;15.71;42.92
72855;BME280;60991;51.278;22.550;2023-05-02T07:23:44;99282.16;;;15.76;43.10
72855;BME280;60991;51.278;22.550;2023-05-02T07:25:14;99283.72;;;15.87;43.64
72855;BME280;60991;51.278;22.550;2023-05-02T07:26:45;99285.84;;;15.95;43.35
72855;BME280;60991;51.278;22.550;2023-05-02T07:28:15;99285.25;;;16.03;43.12
72855;BME280;60991;51.278;22.550;2023-05-02T07:29:45;99282.00;;;16.11;43.18
72855;BME280;60991;51.278;22.550;2023-05-02T07:31:15;99283.03;;;16.15;43.54
72855;BME280;60991;51.278;22.550;2023-05-02T07:32:46;99286.75;;;16.24;43.03
72855;BME280;60991;51.278;22.550;2023-05-02T07:34:16;99287.75;;;16.34;42.88
72855;BME280;60991;51.278;22.550;2023-05-02T07:35:46;99290.69;;;16.37;43.04
72855;BME280;60991;51.278;22.550;2023-05-02T07:37:16;99279.94;;;16.42;42.99
72855;BME280;60991;51.278;22.550;2023-05-02T07:38:46;99280.47;;;16.44;43.35
72855;BME280;60991;51.278;22.550;2023-05-02T07:40:17;99287.69;;;16.49;42.89
72855;BME280;60991;51.278;22.550;2023-05-02T07:41:51;99288.41;;;16.54;42.85
72855;BME280;60991;51.278;22.550;2023-05-02T07:43:21;99284.91;;;16.59;42.66
72855;BME280;60991;51.278;22.550;2023-05-02T07:44:51;99292.16;;;16.64;42.22
72855;BME280;60991;51.278;22.550;2023-05-02T07:46:22;99287.03;;;16.67;42.31
72855;BME280;60991;51.278;22.550;2023-05-02T07:47:52;99290.25;;;16.69;42.37
72855;BME280;60991;51.278;22.550;2023-05-02T07:49:23;99292.63;;;16.71;42.34
72855;BME280;60991;51.278;22.550;2023-05-02T07:50:53;99292.34;;;16.72;42.73
72855;BME280;60991;51.278;22.550;2023-05-02T07:52:23;99288.56;;;16.78;42.38
72855;BME280;60991;51.278;22.550;2023-05-02T07:53:53;99292.56;;;16.81;42.17
72855;BME280;60991;51.278;22.550;2023-05-02T07:55:24;99287.72;;;16.83;41.63
72855;BME280;60991;51.278;22.550;2023-05-02T07:56:54;99289.25;;;16.89;41.87
72855;BME280;60991;51.278;22.550;2023-05-02T07:58:24;99282.00;;;16.89;41.96
72855;BME280;60991;51.278;22.550;2023-05-02T07:59:54;99287.84;;;17.02;41.97
72855;BME280;60991;51.278;22.550;2023-05-02T08:01:24;99290.75;;;17.05;41.81
72855;BME280;60991;51.278;22.550;2023-05-02T08:02:55;99288.28;;;17.09;41.38
72855;BME280;60991;51.278;22.550;2023-05-02T08:04:25;99282.88;;;17.14;40.64
72855;BME280;60991;51.278;22.550;2023-05-02T08:05:56;99288.25;;;17.14;40.22
72855;BME280;60991;51.278;22.550;2023-05-02T08:07:26;99292.81;;;17.13;40.70
72855;BME280;60991;51.278;22.550;2023-05-02T08:08:56;99283.41;;;17.16;40.71
72855;BME280;60991;51.278;22.550;2023-05-02T08:10:27;99282.59;;;17.15;41.42
72855;BME280;60991;51.278;22.550;2023-05-02T08:11:57;99285.97;;;17.26;41.76
72855;BME280;60991;51.278;22.550;2023-05-02T08:13:27;99288.84;;;17.35;41.75
72855;BME280;60991;51.278;22.550;2023-05-02T08:14:57;99289.84;;;17.44;41.14
72855;BME280;60991;51.278;22.550;2023-05-02T08:16:27;99305.31;;;17.52;41.30
72855;BME280;60991;51.278;22.550;2023-05-02T08:17:58;99302.81;;;17.60;41.40